Time;durP1;ratioP1;P1;durP2;ratioP2;P2;SDS_P1;SDS_P2;PMS_P1;PMS_P2;Temp;Humidity;BMP_temperature;BMP_pressure;BME280_temperature;BME280_humidity;BME280_pressure;Samples;Min_cycle;Max_cycle;Signal;HPM_P1;HPM_P2
2021/10/08 00:00:12;;;;;;;16.95;8.70;;;;;;;;;;5093560;28;20117;-83
2021/10/08 00:02:39;;;;;;;14.20;7.70;;;;;;;;;;5094867;28;20154;-83
2021/10/08 00:05:06;;;;;;;17.83;8.50;;;;;;;;;;5094711;28;20024;-83
2021/10/08 00:07:32;;;;;;;19.08;9.02;;;;;;;;;;5095143;28;20040;-83
2021/10/08 00:09:58;;;;;;;24.90;8.48;;;;;;;;;;5093356;28;20384;-83
2021/10/08 00:12:25;;;;;;;18.50;8.27;;;;;;;;;;5094565;28;20039;-82
2021/10/08 00:14:51;;;;;;;16.88;9.02;;;;;;;;;;5093307;28;20027;-82
2021/10/08 00:17:17;;;;;;;14.27;7.72;;;;;;;;;;5095083;28;20109;-84
2021/10/08 00:19:44;;;;;;;15.52;7.70;;;;;;;;;;5093178;28;20384;-82
2021/10/08 00:22:10;;;;;;;14.68;7.63;;;;;;;;;;5095014;28;20070;-83
2021/10/08 00:24:36;;;;;;;17.92;8.82;;;;;;;;;;5094365;28;20056;-82
2021/10/08 00:27:03;;;;;;;13.65;8.27;;;;;;;;;;5094810;28;20115;-83
2021/10/08 00:29:29;;;;;;;17.80;8.73;;;;;;;;;;5094323;28;20069;-83
2021/10/08 00:31:55;;;;;;;15.60;8.18;;;;;;;;;;5092931;28;20388;-83
2021/10/08 00:34:22;;;;;;;16.30;7.90;;;;;;;;;;5094234;28;20107;-83
2021/10/08 00:36:48;;;;;;;15.88;8.13;;;;;;;;;;5092904;28;20079;-82
2021/10/08 00:39:14;;;;;;;15.20;7.55;;;;;;;;;;5092864;28;20111;-82
2021/10/08 00:41:41;;;;;;;13.60;7.80;;;;;;;;;;5094075;28;20039;-83
2021/10/08 00:44:07;;;;;;;15.60;7.70;;;;;;;;;;5094105;28;20024;-83
2021/10/08 00:46:33;;;;;;;14.65;7.35;;;;;;;;;;5092698;28;20032;-82
2021/10/08 00:49:00;;;;;;;14.27;8.60;;;;;;;;;;5094492;28;20028;-82
2021/10/08 00:51:26;;;;;;;12.45;6.72;;;;;;;;;;5093978;28;20028;-83
2021/10/08 00:53:53;;;;;;;22.52;8.20;;;;;;;;;;5093434;28;20044;-83
2021/10/08 00:56:20;;;;;;;13.15;7.03;;;;;;;;;;5093879;28;20047;-82
2021/10/08 00:58:46;;;;;;;13.90;6.78;;;;;;;;;;5092552;28;20055;-83
2021/10/08 01:01:16;;;;;;;14.43;7.30;;;;;;;;;;5093835;28;20421;-82
2021/10/08 01:03:43;;;;;;;19.00;8.40;;;;;;;;;;5092539;28;20031;-83
2021/10/08 01:06:09;;;;;;;12.57;6.68;;;;;;;;;;5092345;28;20547;-83
2021/10/08 01:08:36;;;;;;;15.10;7.53;;;;;;;;;;5093733;28;20383;-82
2021/10/08 01:11:03;;;;;;;19.77;7.82;;;;;;;;;;5092407;28;20024;-83
2021/10/08 01:13:30;;;;;;;11.98;6.70;;;;;;;;;;5093639;28;20031;-82
2021/10/08 01:15:56;;;;;;;19.10;7.53;;;;;;;;;;5094145;28;20417;-82
2021/10/08 01:18:26;;;;;;;17.23;7.78;;;;;;;;;;5093556;28;20077;-83
2021/10/08 01:20:53;;;;;;;12.27;6.93;;;;;;;;;;5092244;28;20025;-82
2021/10/08 01:23:19;;;;;;;13.35;7.25;;;;;;;;;;5092264;28;20024;-83
2021/10/08 01:25:49;;;;;;;16.38;7.22;;;;;;;;;;5093941;28;20036;-82
2021/10/08 01:28:15;;;;;;;26.27;6.78;;;;;;;;;;5094073;28;20468;-81
2021/10/08 01:30:41;;;;;;;14.85;6.75;;;;;;;;;;5092157;28;20028;-81
2021/10/08 01:33:07;;;;;;;13.52;6.45;;;;;;;;;;5094035;28;20024;-82
2021/10/08 01:35:34;;;;;;;15.10;7.40;;;;;;;;;;5093463;28;20036;-83
2021/10/08 01:38:00;;;;;;;20.63;7.25;;;;;;;;;;5092158;28;20103;-82
2021/10/08 01:40:26;;;;;;;17.80;7.80;;;;;;;;;;5093344;28;20032;-82
2021/10/08 01:42:52;;;;;;;14.27;7.32;;;;;;;;;;5093362;28;20066;-89
2021/10/08 01:45:19;;;;;;;16.13;8.20;;;;;;;;;;5092078;28;20127;-82
2021/10/08 01:47:45;;;;;;;17.25;7.13;;;;;;;;;;5091979;28;20044;-83
2021/10/08 01:50:12;;;;;;;16.98;7.60;;;;;;;;;;5093883;28;20489;-82
2021/10/08 01:52:38;;;;;;;13.18;7.43;;;;;;;;;;5092030;28;20109;-83
2021/10/08 01:55:05;;;;;;;16.08;7.20;;;;;;;;;;5091689;28;20578;-81
2021/10/08 01:57:32;;;;;;;16.40;7.72;;;;;;;;;;5092002;28;20024;-83
2021/10/08 01:59:58;;;;;;;17.58;7.57;;;;;;;;;;5091929;28;20491;-83
2021/10/08 02:02:24;;;;;;;18.75;7.38;;;;;;;;;;5093183;28;20103;-82
2021/10/08 02:04:51;;;;;;;13.70;7.32;;;;;;;;;;5093501;28;20039;-83
2021/10/08 02:07:17;;;;;;;14.80;6.93;;;;;;;;;;5096962;28;20085;-83
2021/10/08 02:09:44;;;;;;;18.52;7.72;;;;;;;;;;5097543;28;20381;-82
2021/10/08 02:12:10;;;;;;;17.35;8.15;;;;;;;;;;5097514;28;20074;-83
2021/10/08 02:14:36;;;;;;;13.68;7.63;;;;;;;;;;5097444;28;20016;-83
2021/10/08 02:17:03;;;;;;;15.88;7.53;;;;;;;;;;5096877;28;20060;-82
2021/10/08 02:19:29;;;;;;;13.38;7.10;;;;;;;;;;5095488;28;20028;-83
2021/10/08 02:21:56;;;;;;;17.42;7.43;;;;;;;;;;5096817;28;20020;-83
2021/10/08 02:24:22;;;;;;;14.57;7.10;;;;;;;;;;5095435;28;20024;-82
2021/10/08 02:26:48;;;;;;;15.40;8.10;;;;;;;;;;5096582;28;20043;-83
2021/10/08 02:29:15;;;;;;;12.48;6.82;;;;;;;;;;5095371;28;20020;-82
2021/10/08 02:31:41;;;;;;;15.68;7.80;;;;;;;;;;5095292;28;20031;-83
2021/10/08 02:34:07;;;;;;;14.00;6.70;;;;;;;;;;5097137;28;20157;-83
2021/10/08 02:36:34;;;;;;;14.57;6.28;;;;;;;;;;5097118;28;20032;-83
2021/10/08 02:39:00;;;;;;;15.13;7.10;;;;;;;;;;5095187;28;20082;-83
2021/10/08 02:41:27;;;;;;;15.70;7.40;;;;;;;;;;5096634;28;20095;-83
2021/10/08 02:43:53;;;;;;;14.85;7.47;;;;;;;;;;5095141;28;20028;-82
2021/10/08 02:46:19;;;;;;;11.65;6.60;;;;;;;;;;5095118;28;20033;-82
2021/10/08 02:48:45;;;;;;;13.88;7.32;;;;;;;;;;5096247;28;20048;-82
2021/10/08 02:51:12;;;;;;;11.30;6.85;;;;;;;;;;5094949;28;20020;-83
2021/10/08 02:53:38;;;;;;;13.07;6.55;;;;;;;;;;5095924;28;20030;-83
2021/10/08 02:56:04;;;;;;;11.68;5.85;;;;;;;;;;5094883;28;20063;-81
2021/10/08 02:58:31;;;;;;;14.57;7.00;;;;;;;;;;5094805;28;20031;-82
2021/10/08 03:00:57;;;;;;;16.90;7.53;;;;;;;;;;5094744;28;20027;-83
2021/10/08 03:03:23;;;;;;;13.98;7.10;;;;;;;;;;5094757;28;20027;-83
2021/10/08 03:05:50;;;;;;;13.23;6.82;;;;;;;;;;5094606;28;20032;-83
2021/10/08 03:08:16;;;;;;;13.15;7.18;;;;;;;;;;5094606;28;20097;-82
2021/10/08 03:10:42;;;;;;;11.68;7.38;;;;;;;;;;5094582;28;20461;-82
2021/10/08 03:13:08;;;;;;;16.90;7.18;;;;;;;;;;5096346;28;20024;-82
2021/10/08 03:15:35;;;;;;;16.20;7.10;;;;;;;;;;5096366;28;20091;-82
2021/10/08 03:18:01;;;;;;;14.23;7.35;;;;;;;;;;5094918;28;20032;-82
2021/10/08 03:20:28;;;;;;;14.85;7.35;;;;;;;;;;5096183;28;20024;-82
2021/10/08 03:22:54;;;;;;;12.65;7.18;;;;;;;;;;5095660;28;20078;-82
2021/10/08 03:25:21;;;;;;;13.50;6.75;;;;;;;;;;5094351;28;20443;-82
2021/10/08 03:27:47;;;;;;;13.35;6.82;;;;;;;;;;5094438;28;20032;-82
2021/10/08 03:30:17;;;;;;;12.57;6.63;;;;;;;;;;5095494;28;20109;-82
2021/10/08 03:32:43;;;;;;;19.60;6.55;;;;;;;;;;5094130;28;20366;-82
2021/10/08 03:35:10;;;;;;;15.82;6.93;;;;;;;;;;5094147;28;20485;-83
2021/10/08 03:37:52;;;;;;;17.33;6.75;;;;;;;;;;5095799;28;20416;-82
2021/10/08 03:40:24;;;;;;;13.18;6.28;;;;;;;;;;5094151;28;20031;-82
2021/10/08 03:42:50;;;;;;;12.73;6.30;;;;;;;;;;5095850;28;20044;-82
2021/10/08 03:45:17;;;;;;;11.35;6.25;;;;;;;;;;5093971;28;20055;-81
2021/10/08 03:50:22;;;;;;;15.18;6.63;;;;;;;;;;5095236;28;20027;-82
2021/10/08 03:52:48;;;;;;;12.65;6.32;;;;;;;;;;5093774;28;20468;-83
2021/10/08 03:55:15;;;;;;;11.25;5.90;;;;;;;;;;5094766;28;20046;-82
2021/10/08 03:57:41;;;;;;;16.15;5.78;;;;;;;;;;5093640;28;20029;-83
2021/10/08 04:00:08;;;;;;;12.80;6.07;;;;;;;;;;5094833;28;20099;-83
2021/10/08 04:02:34;;;;;;;11.43;5.60;;;;;;;;;;5094907;28;20474;-83
2021/10/08 04:05:00;;;;;;;14.15;6.45;;;;;;;;;;5095360;28;20518;-83
2021/10/08 04:07:26;;;;;;;11.50;6.85;;;;;;;;;;5095232;28;20495;-82
2021/10/08 04:09:53;;;;;;;11.32;5.97;;;;;;;;;;5093434;28;20028;-83
2021/10/08 04:12:19;;;;;;;11.18;5.55;;;;;;;;;;5093343;28;20119;-83
2021/10/08 04:14:45;;;;;;;13.13;6.65;;;;;;;;;;5094595;28;20392;-83
2021/10/08 04:17:12;;;;;;;12.43;5.28;;;;;;;;;;5093352;28;20039;-82
2021/10/08 04:19:38;;;;;;;12.48;6.00;;;;;;;;;;5093260;28;20154;-83
2021/10/08 04:22:04;;;;;;;9.23;5.10;;;;;;;;;;5095149;28;20024;-82
2021/10/08 04:24:30;;;;;;;10.73;5.20;;;;;;;;;;5094573;28;20098;-81
2021/10/08 04:26:56;;;;;;;11.40;5.78;;;;;;;;;;5093823;28;20036;-82
2021/10/08 04:29:23;;;;;;;13.00;5.40;;;;;;;;;;5093263;28;20028;-91
2021/10/08 04:31:49;;;;;;;10.40;4.90;;;;;;;;;;5093286;28;20115;-89
2021/10/08 04:34:15;;;;;;;15.02;6.75;;;;;;;;;;5092985;28;20030;-83
2021/10/08 04:36:41;;;;;;;13.38;5.78;;;;;;;;;;5093034;28;20119;-84
2021/10/08 04:39:08;;;;;;;14.82;5.70;;;;;;;;;;5093243;28;20020;-84
2021/10/08 04:41:34;;;;;;;14.00;5.65;;;;;;;;;;5093051;28;20023;-89
2021/10/08 04:44:00;;;;;;;11.50;5.68;;;;;;;;;;5094640;28;20024;-91
2021/10/08 04:46:26;;;;;;;8.93;4.88;;;;;;;;;;5093257;28;20036;-92
2021/10/08 04:48:53;;;;;;;12.98;5.45;;;;;;;;;;5093355;28;20020;-84
2021/10/08 04:51:19;;;;;;;10.82;5.88;;;;;;;;;;5094179;28;20088;-83
2021/10/08 04:53:46;;;;;;;17.52;5.93;;;;;;;;;;5094021;28;20468;-92
2021/10/08 04:56:12;;;;;;;8.60;4.32;;;;;;;;;;5092599;28;20039;-87
2021/10/08 04:58:39;;;;;;;11.15;5.32;;;;;;;;;;5090172;28;20443;-82
2021/10/08 05:01:05;;;;;;;11.70;5.50;;;;;;;;;;5092208;28;20032;-83
2021/10/08 05:03:31;;;;;;;11.23;5.05;;;;;;;;;;5092371;28;20484;-82
2021/10/08 05:05:57;;;;;;;12.57;5.97;;;;;;;;;;5092035;28;20028;-82
2021/10/08 05:08:24;;;;;;;11.50;5.70;;;;;;;;;;5092167;28;20039;-84
2021/10/08 05:10:50;;;;;;;9.57;4.95;;;;;;;;;;5092448;28;20384;-83
2021/10/08 05:13:17;;;;;;;10.75;5.68;;;;;;;;;;5092322;28;20032;-83
2021/10/08 05:15:43;;;;;;;14.27;5.22;;;;;;;;;;5092198;28;20020;-83
2021/10/08 05:18:09;;;;;;;11.95;5.22;;;;;;;;;;5093634;28;20028;-82
2021/10/08 05:20:36;;;;;;;15.57;5.93;;;;;;;;;;5092221;28;20035;-83
2021/10/08 05:23:02;;;;;;;14.38;5.50;;;;;;;;;;5093343;28;20358;-82
2021/10/08 05:25:28;;;;;;;11.32;5.38;;;;;;;;;;5092150;28;20028;-83
2021/10/08 05:27:54;;;;;;;9.82;4.85;;;;;;;;;;5092039;28;20115;-83
2021/10/08 05:30:20;;;;;;;11.00;5.90;;;;;;;;;;5092140;28;20024;-81
2021/10/08 05:32:47;;;;;;;13.63;4.85;;;;;;;;;;5093345;28;20026;-82
2021/10/08 05:35:13;;;;;;;14.90;4.90;;;;;;;;;;5091995;28;20156;-82
2021/10/08 05:37:39;;;;;;;11.43;4.63;;;;;;;;;;5091998;28;20078;-83
2021/10/08 05:40:06;;;;;;;10.93;5.35;;;;;;;;;;5092807;28;20145;-83
2021/10/08 05:42:32;;;;;;;11.75;4.28;;;;;;;;;;5095825;28;20365;-82
2021/10/08 05:45:01;;;;;;;15.40;5.25;;;;;;;;;;5095823;28;20078;-83
2021/10/08 05:47:27;;;;;;;13.13;5.43;;;;;;;;;;5095997;28;20040;-83
2021/10/08 05:49:53;;;;;;;8.93;4.53;;;;;;;;;;5096019;28;20054;-82
2021/10/08 05:52:20;;;;;;;11.05;4.55;;;;;;;;;;5095925;28;20107;-83
2021/10/08 05:54:46;;;;;;;7.80;4.43;;;;;;;;;;5095738;28;20052;-82
2021/10/08 05:57:12;;;;;;;15.15;5.28;;;;;;;;;;5095747;28;20036;-83
2021/10/08 05:59:39;;;;;;;10.35;5.28;;;;;;;;;;5095789;28;20027;-82
2021/10/08 06:02:05;;;;;;;9.10;4.85;;;;;;;;;;5095637;28;20028;-83
2021/10/08 06:04:31;;;;;;;10.82;5.30;;;;;;;;;;5095442;28;20477;-83
2021/10/08 06:06:57;;;;;;;13.63;5.90;;;;;;;;;;5095513;28;20032;-83
2021/10/08 06:09:23;;;;;;;12.88;5.85;;;;;;;;;;5095686;28;20043;-83
2021/10/08 06:11:49;;;;;;;10.32;5.30;;;;;;;;;;5095654;28;20129;-82
2021/10/08 06:14:15;;;;;;;11.52;5.32;;;;;;;;;;5095602;28;20050;-81
2021/10/08 06:16:42;;;;;;;7.55;4.88;;;;;;;;;;5095251;28;20080;-82
2021/10/08 06:19:08;;;;;;;8.10;4.40;;;;;;;;;;5095178;28;20020;-84
2021/10/08 06:21:34;;;;;;;7.90;4.68;;;;;;;;;;5095463;28;20073;-81
2021/10/08 06:24:00;;;;;;;7.00;4.60;;;;;;;;;;5095339;28;20066;-84
2021/10/08 06:26:26;;;;;;;9.05;4.53;;;;;;;;;;5095288;28;20024;-81
2021/10/08 06:28:52;;;;;;;8.63;4.85;;;;;;;;;;5095358;28;20055;-81
2021/10/08 06:31:18;;;;;;;11.27;4.57;;;;;;;;;;5095216;28;20048;-80
2021/10/08 06:33:44;;;;;;;8.75;4.38;;;;;;;;;;5095123;28;20032;-81
2021/10/08 06:36:11;;;;;;;7.78;4.65;;;;;;;;;;5095248;28;20020;-82
2021/10/08 06:38:37;;;;;;;9.13;4.50;;;;;;;;;;5095155;28;20084;-82
2021/10/08 06:41:03;;;;;;;9.85;4.10;;;;;;;;;;5094960;28;20118;-82
2021/10/08 06:43:29;;;;;;;7.40;3.90;;;;;;;;;;5095052;28;20024;-82
2021/10/08 06:45:55;;;;;;;8.18;3.95;;;;;;;;;;5096196;28;20043;-82
2021/10/08 06:48:21;;;;;;;11.07;3.55;;;;;;;;;;5094957;28;20400;-83
2021/10/08 06:50:48;;;;;;;8.00;3.15;;;;;;;;;;5094704;28;20392;-82
2021/10/08 06:53:14;;;;;;;9.23;3.58;;;;;;;;;;5091152;28;20020;-82
2021/10/08 06:55:40;;;;;;;7.45;3.15;;;;;;;;;;5094450;28;20139;-83
2021/10/08 06:58:06;;;;;;;7.63;2.70;;;;;;;;;;5096019;28;20376;-82
2021/10/08 07:00:32;;;;;;;9.57;3.53;;;;;;;;;;5095818;28;20048;-83
2021/10/08 07:02:58;;;;;;;7.32;3.05;;;;;;;;;;5094535;28;20547;-82
2021/10/08 07:05:25;;;;;;;5.50;2.92;;;;;;;;;;5094565;28;20020;-82
2021/10/08 07:07:51;;;;;;;6.38;3.38;;;;;;;;;;5094448;28;20058;-85
2021/10/08 07:10:18;;;;;;;6.75;2.83;;;;;;;;;;5094314;28;20020;-82
2021/10/08 07:12:44;;;;;;;7.95;2.95;;;;;;;;;;5094395;28;20075;-82
2021/10/08 07:15:20;;;;;;;6.97;3.50;;;;;;;;;;5095965;28;20029;-83
2021/10/08 07:17:51;;;;;;;8.95;3.40;;;;;;;;;;5095383;28;20407;-82
2021/10/08 07:20:18;;;;;;;6.15;3.45;;;;;;;;;;5093613;28;20358;-82
2021/10/08 07:22:45;;;;;;;9.20;3.60;;;;;;;;;;5094307;28;20024;-82
2021/10/08 07:25:11;;;;;;;7.72;3.05;;;;;;;;;;5094175;28;20031;-83
2021/10/08 07:27:38;;;;;;;7.22;3.33;;;;;;;;;;5093984;28;20036;-82
2021/10/08 07:30:05;;;;;;;5.28;2.90;;;;;;;;;;5093760;28;20020;-82
2021/10/08 07:32:31;;;;;;;5.03;3.20;;;;;;;;;;5094047;28;20016;-82
2021/10/08 07:34:57;;;;;;;8.90;3.80;;;;;;;;;;5093992;28;20021;-82
2021/10/08 07:37:24;;;;;;;6.60;3.42;;;;;;;;;;5093974;28;20031;-82
2021/10/08 07:39:50;;;;;;;10.45;3.47;;;;;;;;;;5093862;28;20047;-81
2021/10/08 07:42:16;;;;;;;8.88;3.25;;;;;;;;;;5094256;28;20062;-82
2021/10/08 07:44:42;;;;;;;6.13;3.20;;;;;;;;;;5093656;28;20140;-84
2021/10/08 07:47:09;;;;;;;4.97;2.63;;;;;;;;;;5093577;28;20484;-82
2021/10/08 07:49:35;;;;;;;11.52;3.03;;;;;;;;;;5093473;28;20024;-82
2021/10/08 07:52:01;;;;;;;6.38;2.40;;;;;;;;;;5093624;28;20032;-82
2021/10/08 07:54:27;;;;;;;5.93;2.70;;;;;;;;;;5093421;28;20052;-82
2021/10/08 07:56:53;;;;;;;4.93;2.65;;;;;;;;;;5094926;28;20103;-82
2021/10/08 07:59:19;;;;;;;5.95;2.65;;;;;;;;;;5093611;28;20173;-81
2021/10/08 08:01:46;;;;;;;9.45;3.00;;;;;;;;;;5093487;28;20479;-82
2021/10/08 08:04:12;;;;;;;9.13;2.63;;;;;;;;;;5092998;28;20074;-83
2021/10/08 08:06:38;;;;;;;4.25;2.58;;;;;;;;;;5094374;28;20129;-82
2021/10/08 08:09:06;;;;;;;9.30;2.75;;;;;;;;;;5093366;28;20051;-82
2021/10/08 08:11:32;;;;;;;7.95;2.88;;;;;;;;;;5093371;28;20035;-82
2021/10/08 08:13:58;;;;;;;8.38;3.10;;;;;;;;;;5093155;28;20028;-82
2021/10/08 08:16:24;;;;;;;4.35;2.63;;;;;;;;;;5093213;28;20387;-82
2021/10/08 08:18:51;;;;;;;9.05;2.55;;;;;;;;;;5093193;28;20392;-82
2021/10/08 08:21:18;;;;;;;7.03;2.72;;;;;;;;;;5093207;28;20024;-82
2021/10/08 08:23:45;;;;;;;5.00;2.85;;;;;;;;;;5093130;28;20020;-82
2021/10/08 08:26:11;;;;;;;6.40;2.80;;;;;;;;;;5093015;28;20028;-83
2021/10/08 08:28:37;;;;;;;12.30;2.80;;;;;;;;;;5092940;28;20028;-82
2021/10/08 08:31:03;;;;;;;8.20;2.60;;;;;;;;;;5093035;28;20047;-82
2021/10/08 08:33:29;;;;;;;6.72;2.65;;;;;;;;;;5094251;28;20031;-81
2021/10/08 08:35:56;;;;;;;6.18;2.38;;;;;;;;;;5094171;28;20039;-82
2021/10/08 08:38:22;;;;;;;4.57;2.30;;;;;;;;;;5094091;28;20084;-81
2021/10/08 08:40:48;;;;;;;7.60;2.42;;;;;;;;;;5092681;28;20115;-82
2021/10/08 08:43:15;;;;;;;6.65;2.42;;;;;;;;;;5092480;28;20035;-82
2021/10/08 08:45:41;;;;;;;5.78;2.63;;;;;;;;;;5093941;28;20024;-82
2021/10/08 08:48:08;;;;;;;8.02;2.63;;;;;;;;;;5093885;28;20031;-82
2021/10/08 08:50:36;;;;;;;6.65;2.03;;;;;;;;;;5092657;28;20065;-85
2021/10/08 08:53:02;;;;;;;6.38;2.70;;;;;;;;;;5094210;28;20493;-82
2021/10/08 08:55:28;;;;;;;6.13;2.50;;;;;;;;;;5093625;28;20051;-82
2021/10/08 08:57:54;;;;;;;6.13;2.38;;;;;;;;;;5092412;28;20495;-85
2021/10/08 09:00:21;;;;;;;9.10;2.20;;;;;;;;;;5092505;28;20388;-83
2021/10/08 09:02:57;;;;;;;7.22;2.67;;;;;;;;;;5093771;28;20024;-82
2021/10/08 09:05:25;;;;;;;10.35;2.72;;;;;;;;;;5093690;28;20480;-82
2021/10/08 09:07:55;;;;;;;9.43;2.78;;;;;;;;;;5093500;28;20068;-82
2021/10/08 09:10:23;;;;;;;4.43;2.35;;;;;;;;;;5094074;28;20020;-82
2021/10/08 09:12:53;;;;;;;3.10;1.90;;;;;;;;;;5092249;28;20039;-82
2021/10/08 09:15:19;;;;;;;5.57;2.30;;;;;;;;;;5091575;28;20070;-83
2021/10/08 09:17:46;;;;;;;5.35;2.50;;;;;;;;;;5092104;28;20020;-82
2021/10/08 09:20:13;;;;;;;3.65;2.25;;;;;;;;;;5091911;28;20032;-83
2021/10/08 09:22:40;;;;;;;5.07;2.38;;;;;;;;;;5093471;28;20020;-83
2021/10/08 09:25:12;;;;;;;4.00;2.22;;;;;;;;;;5092237;28;20024;-82
2021/10/08 09:27:38;;;;;;;8.15;2.42;;;;;;;;;;5092076;28;20036;-83
2021/10/08 09:30:05;;;;;;;5.28;2.10;;;;;;;;;;5092081;28;20119;-82
2021/10/08 09:32:40;;;;;;;6.18;2.30;;;;;;;;;;5093582;28;20042;-84
2021/10/08 09:35:08;;;;;;;5.03;2.20;;;;;;;;;;5092205;28;20494;-83
2021/10/08 09:37:36;;;;;;;5.85;2.65;;;;;;;;;;5092118;28;20035;-82
2021/10/08 09:40:03;;;;;;;4.25;2.75;;;;;;;;;;5093332;28;20012;-82
2021/10/08 09:42:40;;;;;;;3.92;2.35;;;;;;;;;;5092080;28;20036;-83
2021/10/08 09:45:06;;;;;;;4.82;2.50;;;;;;;;;;5092067;28;20043;-83
2021/10/08 09:47:32;;;;;;;4.15;2.72;;;;;;;;;;5091975;28;20381;-83
2021/10/08 09:50:12;;;;;;;6.68;2.65;;;;;;;;;;5093156;28;20380;-82
2021/10/08 09:52:38;;;;;;;4.50;2.70;;;;;;;;;;5091957;28;20035;-84
2021/10/08 09:55:06;;;;;;;4.07;2.40;;;;;;;;;;5091264;28;20044;-86
2021/10/08 09:57:52;;;;;;;5.25;2.65;;;;;;;;;;5091821;28;20107;-83
2021/10/08 10:00:37;;;;;;;5.13;2.45;;;;;;;;;;5082776;28;20131;-84
2021/10/08 10:03:04;;;;;;;5.82;2.65;;;;;;;;;;5091899;28;20028;-84
2021/10/08 10:05:30;;;;;;;5.05;2.47;;;;;;;;;;5091906;28;20058;-83
2021/10/08 10:07:57;;;;;;;4.88;2.83;;;;;;;;;;5092972;28;20494;-82
2021/10/08 10:10:24;;;;;;;5.15;2.33;;;;;;;;;;5093440;28;20043;-82
2021/10/08 10:12:51;;;;;;;5.57;2.15;;;;;;;;;;5091705;28;20040;-81
2021/10/08 10:15:20;;;;;;;4.70;2.40;;;;;;;;;;5092963;28;20048;-80
2021/10/08 10:17:47;;;;;;;6.18;3.08;;;;;;;;;;5093017;28;20480;-81
2021/10/08 10:20:13;;;;;;;14.20;4.07;;;;;;;;;;5091634;28;20369;-81
2021/10/08 10:22:40;;;;;;;11.30;3.42;;;;;;;;;;5092915;28;20017;-81
2021/10/08 10:25:07;;;;;;;7.72;3.20;;;;;;;;;;5091935;28;20054;-82
2021/10/08 10:27:33;;;;;;;7.93;3.30;;;;;;;;;;5094453;28;20044;-81
2021/10/08 10:30:00;;;;;;;5.60;3.13;;;;;;;;;;5095302;28;20057;-81
2021/10/08 10:32:26;;;;;;;10.20;3.80;;;;;;;;;;5094855;28;20031;-80
2021/10/08 10:34:52;;;;;;;6.93;3.08;;;;;;;;;;5095232;28;20511;-82
2021/10/08 10:37:38;;;;;;;10.57;3.42;;;;;;;;;;5095281;28;20028;-81
2021/10/08 10:40:23;;;;;;;7.05;3.50;;;;;;;;;;5095050;28;20081;-84
2021/10/08 10:43:08;;;;;;;11.20;3.70;;;;;;;;;;5096407;28;20390;-81
2021/10/08 10:45:34;;;;;;;6.75;3.72;;;;;;;;;;5095148;28;20495;-80
2021/10/08 10:48:21;;;;;;;13.10;3.65;;;;;;;;;;5095100;28;20036;-81
2021/10/08 10:51:09;;;;;;;7.63;3.05;;;;;;;;;;5096474;28;20107;-79
2021/10/08 10:54:05;;;;;;;4.97;2.85;;;;;;;;;;5094643;28;20024;-80
2021/10/08 10:56:37;;;;;;;5.85;2.78;;;;;;;;;;5063292;28;20044;-82
2021/10/08 10:59:21;;;;;;;8.73;2.35;;;;;;;;;;5074530;28;20504;-80
2021/10/08 11:02:08;;;;;;;4.78;2.47;;;;;;;;;;5074450;28;20033;-81
2021/10/08 11:04:41;;;;;;;4.88;2.67;;;;;;;;;;5061245;28;20036;-81
2021/10/08 11:07:08;;;;;;;8.47;3.07;;;;;;;;;;5074350;28;20393;-82
2021/10/08 11:09:34;;;;;;;5.70;2.55;;;;;;;;;;5075212;28;20021;-82
2021/10/08 11:12:19;;;;;;;7.38;2.45;;;;;;;;;;5074242;28;20027;-81
2021/10/08 11:14:45;;;;;;;10.68;2.22;;;;;;;;;;5093391;28;20101;-83
2021/10/08 11:17:38;;;;;;;4.38;1.70;;;;;;;;;;5095860;28;20020;-82
2021/10/08 11:20:04;;;;;;;3.35;1.35;;;;;;;;;;5090582;28;20036;-83
2021/10/08 11:22:45;;;;;;;4.57;1.83;;;;;;;;;;5095633;28;20472;-83
2021/10/08 11:25:14;;;;;;;3.40;1.60;;;;;;;;;;5094278;28;20035;-82
2021/10/08 11:27:41;;;;;;;4.78;1.50;;;;;;;;;;5094142;28;20515;-82
2021/10/08 11:30:07;;;;;;;5.68;2.10;;;;;;;;;;5094156;28;20035;-82
2021/10/08 11:32:34;;;;;;;3.60;1.70;;;;;;;;;;5094118;28;20107;-84
2021/10/08 11:35:01;;;;;;;7.05;2.00;;;;;;;;;;5094902;28;20027;-81
2021/10/08 11:37:29;;;;;;;6.22;1.80;;;;;;;;;;5095129;28;20024;-87
2021/10/08 11:39:55;;;;;;;5.88;1.70;;;;;;;;;;5093766;28;20024;-82
2021/10/08 11:42:24;;;;;;;7.40;2.00;;;;;;;;;;5094037;28;20447;-82
2021/10/08 11:45:06;;;;;;;3.30;1.70;;;;;;;;;;5093582;28;20020;-82
2021/10/08 11:47:48;;;;;;;6.88;1.92;;;;;;;;;;5093787;28;20032;-83
2021/10/08 11:50:29;;;;;;;6.55;1.67;;;;;;;;;;5093861;28;20039;-82
2021/10/08 11:52:56;;;;;;;6.65;2.00;;;;;;;;;;5093881;28;20031;-82
2021/10/08 11:55:25;;;;;;;7.30;1.80;;;;;;;;;;5093483;28;20083;-81
2021/10/08 11:58:05;;;;;;;3.65;1.52;;;;;;;;;;5094810;28;20024;-82
2021/10/08 12:00:35;;;;;;;4.60;1.83;;;;;;;;;;5079667;28;20472;-81
2021/10/08 12:03:06;;;;;;;7.57;2.33;;;;;;;;;;5073248;28;20025;-81
2021/10/08 12:05:42;;;;;;;11.02;2.67;;;;;;;;;;5073217;28;20060;-81
2021/10/08 12:08:11;;;;;;;10.75;2.47;;;;;;;;;;5073005;28;20094;-81
2021/10/08 12:10:37;;;;;;;7.68;2.67;;;;;;;;;;5073166;28;20020;-81
2021/10/08 12:13:03;;;;;;;7.47;2.97;;;;;;;;;;5079031;28;20028;-81
2021/10/08 12:15:33;;;;;;;12.25;3.20;;;;;;;;;;5093284;28;20032;-81
2021/10/08 12:18:00;;;;;;;8.95;3.22;;;;;;;;;;5093238;28;20024;-81
2021/10/08 12:20:33;;;;;;;6.07;2.92;;;;;;;;;;5093203;28;20032;-81
2021/10/08 12:23:20;;;;;;;9.40;2.78;;;;;;;;;;5092700;28;20027;-80
2021/10/08 12:25:47;;;;;;;7.78;3.13;;;;;;;;;;5093059;28;20483;-82
2021/10/08 12:28:16;;;;;;;7.97;3.60;;;;;;;;;;5094298;28;20032;-80
2021/10/08 12:30:59;;;;;;;5.00;2.97;;;;;;;;;;5093082;28;20030;-83
2021/10/08 12:33:33;;;;;;;8.82;3.13;;;;;;;;;;5092979;28;20035;-80
2021/10/08 12:36:12;;;;;;;9.00;3.00;;;;;;;;;;5092877;28;20036;-81
2021/10/08 12:38:57;;;;;;;9.93;3.45;;;;;;;;;;5092813;28;20051;-81
2021/10/08 12:41:46;;;;;;;5.28;2.53;;;;;;;;;;5092869;28;20469;-80
2021/10/08 12:44:16;;;;;;;6.85;3.13;;;;;;;;;;5092820;28;20441;-80
2021/10/08 12:46:44;;;;;;;7.30;2.70;;;;;;;;;;5092656;28;20540;-80
2021/10/08 12:49:11;;;;;;;13.00;3.00;;;;;;;;;;5092206;28;20137;-80
2021/10/08 12:51:48;;;;;;;9.63;3.55;;;;;;;;;;5092210;28;20020;-80
2021/10/08 12:54:15;;;;;;;6.00;3.00;;;;;;;;;;5092390;28;20044;-79
2021/10/08 12:56:42;;;;;;;11.25;3.25;;;;;;;;;;5094250;28;20433;-80
2021/10/08 12:59:11;;;;;;;6.95;2.83;;;;;;;;;;5092130;28;20016;-82
2021/10/08 13:01:38;;;;;;;7.63;3.20;;;;;;;;;;5092577;28;20028;-81
2021/10/08 13:04:17;;;;;;;9.63;3.28;;;;;;;;;;5092594;28;20472;-81
2021/10/08 13:06:43;;;;;;;7.57;3.17;;;;;;;;;;5093711;28;20032;-81
2021/10/08 13:09:14;;;;;;;6.75;3.08;;;;;;;;;;5091164;28;20358;-81
2021/10/08 13:11:42;;;;;;;6.28;3.10;;;;;;;;;;5093692;28;20020;-81
2021/10/08 13:14:28;;;;;;;9.13;3.08;;;;;;;;;;5091913;28;20035;-81
2021/10/08 13:16:54;;;;;;;6.93;3.08;;;;;;;;;;5093678;28;20027;-81
2021/10/08 13:19:28;;;;;;;7.60;2.83;;;;;;;;;;5093665;28;20031;-82
2021/10/08 13:21:54;;;;;;;7.40;3.17;;;;;;;;;;5092340;28;20035;-81
2021/10/08 13:24:20;;;;;;;8.65;3.20;;;;;;;;;;5092218;28;20070;-82
2021/10/08 13:26:46;;;;;;;5.85;2.92;;;;;;;;;;5092251;28;20040;-81
2021/10/08 13:29:12;;;;;;;6.65;2.90;;;;;;;;;;5092197;28;20544;-81
2021/10/08 13:31:38;;;;;;;11.23;3.22;;;;;;;;;;5093300;28;20103;-81
2021/10/08 13:34:07;;;;;;;6.93;3.30;;;;;;;;;;5093353;28;20030;-81
2021/10/08 13:36:33;;;;;;;6.40;2.90;;;;;;;;;;5093044;28;20020;-81
2021/10/08 13:38:59;;;;;;;11.25;2.90;;;;;;;;;;5092269;28;20123;-81
2021/10/08 13:41:25;;;;;;;7.63;2.75;;;;;;;;;;5092236;28;20056;-81
2021/10/08 13:43:51;;;;;;;7.80;3.00;;;;;;;;;;5091957;28;20024;-81
2021/10/08 13:46:17;;;;;;;9.63;3.10;;;;;;;;;;5092927;28;20031;-83
2021/10/08 13:48:46;;;;;;;7.53;3.10;;;;;;;;;;5093862;28;20434;-80
2021/10/08 13:51:13;;;;;;;7.97;3.05;;;;;;;;;;5092118;28;20042;-81
2021/10/08 13:53:39;;;;;;;5.90;2.97;;;;;;;;;;5091721;28;20023;-81
2021/10/08 13:56:05;;;;;;;8.77;3.25;;;;;;;;;;5093155;28;20044;-87
2021/10/08 13:58:31;;;;;;;8.82;3.33;;;;;;;;;;5093665;28;20035;-80
2021/10/08 14:00:59;;;;;;;14.00;2.55;;;;;;;;;;5094198;28;20145;-82
2021/10/08 14:03:37;;;;;;;10.23;3.38;;;;;;;;;;5097198;28;20035;-81
2021/10/08 14:09:02;;;;;;;8.88;2.97;;;;;;;;;;5097021;28;20058;-82
2021/10/08 14:11:29;;;;;;;4.93;2.55;;;;;;;;;;5096878;28;20024;-81
2021/10/08 14:13:55;;;;;;;12.38;3.13;;;;;;;;;;5096669;28;20469;-80
2021/10/08 14:16:21;;;;;;;11.25;2.80;;;;;;;;;;5095693;28;20066;-82
2021/10/08 14:18:47;;;;;;;5.32;2.72;;;;;;;;;;5095672;28;20028;-80
2021/10/08 14:21:14;;;;;;;7.93;3.25;;;;;;;;;;5096960;28;20404;-80
2021/10/08 14:23:40;;;;;;;9.70;2.90;;;;;;;;;;5095678;28;20469;-80
2021/10/08 14:26:06;;;;;;;6.05;2.85;;;;;;;;;;5096801;28;20036;-80
2021/10/08 14:28:32;;;;;;;7.82;2.53;;;;;;;;;;5095639;28;20122;-81
2021/10/08 14:30:58;;;;;;;9.80;2.60;;;;;;;;;;5097029;28;20016;-84
2021/10/08 14:33:25;;;;;;;9.35;2.63;;;;;;;;;;5095600;28;20049;-81
2021/10/08 14:35:51;;;;;;;8.52;3.25;;;;;;;;;;5095251;28;20027;-80
2021/10/08 14:38:17;;;;;;;6.18;3.13;;;;;;;;;;5095628;28;20032;-82
2021/10/08 14:40:44;;;;;;;10.65;2.75;;;;;;;;;;5093382;28;20496;-81
2021/10/08 14:43:10;;;;;;;7.93;3.10;;;;;;;;;;5093834;28;20051;-81
2021/10/08 14:45:36;;;;;;;6.25;2.17;;;;;;;;;;5095068;28;20035;-81